sensor_id;sensor_type;location;lat;lon;timestamp;temperature;humidity
3923;DHT22;1976;51.694;6.256;2022-07-21T00:00:41;18.90;99.90
3923;DHT22;1976;51.694;6.256;2022-07-21T00:03:06;18.80;99.90
3923;DHT22;1976;51.694;6.256;2022-07-21T00:05:32;18.80;99.90
3923;DHT22;1976;51.694;6.256;2022-07-21T00:07:58;18.80;99.90
3923;DHT22;1976;51.694;6.256;2022-07-21T00:10:24;18.80;99.90
3923;DHT22;1976;51.694;6.256;2022-07-21T00:12:52;18.80;99.90
3923;DHT22;1976;51.694;6.256;2022-07-21T00:15:20;18.80;99.90
3923;DHT22;1976;51.694;6.256;2022-07-21T00:17:46;18.80;99.90
3923;DHT22;1976;51.694;6.256;2022-07-21T00:20:13;18.80;99.90
3923;DHT22;1976;51.694;6.256;2022-07-21T00:22:39;18.90;99.90
3923;DHT22;1976;51.694;6.256;2022-07-21T00:25:06;19.00;99.90
3923;DHT22;1976;51.694;6.256;2022-07-21T00:27:32;19.00;99.90
3923;DHT22;1976;51.694;6.256;2022-07-21T00:29:58;19.10;99.90
3923;DHT22;1976;51.694;6.256;2022-07-21T00:32:24;19.00;99.90
3923;DHT22;1976;51.694;6.256;2022-07-21T00:34:50;19.00;99.90
3923;DHT22;1976;51.694;6.256;2022-07-21T00:37:15;19.00;99.90
3923;DHT22;1976;51.694;6.256;2022-07-21T00:39:41;19.00;99.90
3923;DHT22;1976;51.694;6.256;2022-07-21T00:42:07;18.90;99.90
3923;DHT22;1976;51.694;6.256;2022-07-21T00:44:33;19.00;99.90
3923;DHT22;1976;51.694;6.256;2022-07-21T00:46:58;18.90;99.90
3923;DHT22;1976;51.694;6.256;2022-07-21T00:49:24;19.10;99.90
3923;DHT22;1976;51.694;6.256;2022-07-21T00:51:51;19.10;99.90
3923;DHT22;1976;51.694;6.256;2022-07-21T00:54:18;19.20;99.90
3923;DHT22;1976;51.694;6.256;2022-07-21T00:56:45;19.10;99.90
3923;DHT22;1976;51.694;6.256;2022-07-21T00:59:11;19.10;99.90
3923;DHT22;1976;51.694;6.256;2022-07-21T01:01:37;19.10;99.90
3923;DHT22;1976;51.694;6.256;2022-07-21T01:04:03;19.10;99.90
3923;DHT22;1976;51.694;6.256;2022-07-21T01:06:28;19.10;99.90
3923;DHT22;1976;51.694;6.256;2022-07-21T01:08:55;19.00;99.90
3923;DHT22;1976;51.694;6.256;2022-07-21T01:11:22;19.00;99.90
3923;DHT22;1976;51.694;6.256;2022-07-21T01:13:49;19.00;99.90
3923;DHT22;1976;51.694;6.256;2022-07-21T01:16:15;19.00;99.90
3923;DHT22;1976;51.694;6.256;2022-07-21T01:18:40;19.00;99.90
3923;DHT22;1976;51.694;6.256;2022-07-21T01:23:50;19.00;99.90
3923;DHT22;1976;51.694;6.256;2022-07-21T01:26:16;19.00;99.90
3923;DHT22;1976;51.694;6.256;2022-07-21T01:28:42;19.00;99.90
3923;DHT22;1976;51.694;6.256;2022-07-21T01:31:07;19.00;99.90
3923;DHT22;1976;51.694;6.256;2022-07-21T01:33:33;19.00;99.90
3923;DHT22;1976;51.694;6.256;2022-07-21T01:35:58;19.00;99.90
3923;DHT22;1976;51.694;6.256;2022-07-21T01:38:24;19.00;99.90
3923;DHT22;1976;51.694;6.256;2022-07-21T01:41:08;19.10;99.90
3923;DHT22;1976;51.694;6.256;2022-07-21T01:43:52;19.20;99.90
3923;DHT22;1976;51.694;6.256;2022-07-21T01:46:18;19.30;99.90
3923;DHT22;1976;51.694;6.256;2022-07-21T01:48:44;19.30;99.90
3923;DHT22;1976;51.694;6.256;2022-07-21T01:51:10;19.20;99.90
3923;DHT22;1976;51.694;6.256;2022-07-21T01:53:36;19.20;99.90
3923;DHT22;1976;51.694;6.256;2022-07-21T01:56:03;19.20;99.90
3923;DHT22;1976;51.694;6.256;2022-07-21T01:58:30;19.20;99.90
3923;DHT22;1976;51.694;6.256;2022-07-21T02:00:56;19.20;99.90
3923;DHT22;1976;51.694;6.256;2022-07-21T02:03:22;19.20;99.90
3923;DHT22;1976;51.694;6.256;2022-07-21T02:05:48;19.20;99.90
3923;DHT22;1976;51.694;6.256;2022-07-21T02:08:14;19.20;99.90
3923;DHT22;1976;51.694;6.256;2022-07-21T02:10:39;19.20;99.90
3923;DHT22;1976;51.694;6.256;2022-07-21T02:13:05;19.20;99.90
3923;DHT22;1976;51.694;6.256;2022-07-21T02:15:31;19.00;99.90
3923;DHT22;1976;51.694;6.256;2022-07-21T02:17:58;19.00;99.90
3923;DHT22;1976;51.694;6.256;2022-07-21T02:20:24;19.00;99.90
3923;DHT22;1976;51.694;6.256;2022-07-21T02:22:51;19.00;99.90
3923;DHT22;1976;51.694;6.256;2022-07-21T02:25:17;18.90;99.90
3923;DHT22;1976;51.694;6.256;2022-07-21T02:27:44;18.90;99.90
3923;DHT22;1976;51.694;6.256;2022-07-21T02:30:11;18.90;99.90
3923;DHT22;1976;51.694;6.256;2022-07-21T02:32:36;18.90;99.90
3923;DHT22;1976;51.694;6.256;2022-07-21T02:35:02;18.90;99.90
3923;DHT22;1976;51.694;6.256;2022-07-21T02:37:28;18.90;99.90
3923;DHT22;1976;51.694;6.256;2022-07-21T02:39:54;18.80;99.90
3923;DHT22;1976;51.694;6.256;2022-07-21T02:42:20;18.80;99.90
3923;DHT22;1976;51.694;6.256;2022-07-21T02:44:46;18.80;99.90
3923;DHT22;1976;51.694;6.256;2022-07-21T02:47:11;18.80;99.90
3923;DHT22;1976;51.694;6.256;2022-07-21T02:49:37;18.80;99.90
3923;DHT22;1976;51.694;6.256;2022-07-21T02:54:29;18.80;99.90
3923;DHT22;1976;51.694;6.256;2022-07-21T02:56:55;18.90;99.90
3923;DHT22;1976;51.694;6.256;2022-07-21T02:59:20;18.90;99.90
3923;DHT22;1976;51.694;6.256;2022-07-21T03:01:46;18.80;99.90
3923;DHT22;1976;51.694;6.256;2022-07-21T03:04:12;18.80;99.90
3923;DHT22;1976;51.694;6.256;2022-07-21T03:09:05;18.70;99.90
3923;DHT22;1976;51.694;6.256;2022-07-21T03:11:30;18.70;99.90
3923;DHT22;1976;51.694;6.256;2022-07-21T03:13:56;18.70;99.90
3923;DHT22;1976;51.694;6.256;2022-07-21T03:16:22;18.60;99.90
3923;DHT22;1976;51.694;6.256;2022-07-21T03:18:47;18.70;99.90
3923;DHT22;1976;51.694;6.256;2022-07-21T03:21:13;18.60;99.90
3923;DHT22;1976;51.694;6.256;2022-07-21T03:23:39;18.60;99.90
3923;DHT22;1976;51.694;6.256;2022-07-21T03:26:05;18.50;99.90
3923;DHT22;1976;51.694;6.256;2022-07-21T03:28:31;18.60;99.90
3923;DHT22;1976;51.694;6.256;2022-07-21T03:30:56;18.50;99.90
3923;DHT22;1976;51.694;6.256;2022-07-21T03:33:22;18.50;99.90
3923;DHT22;1976;51.694;6.256;2022-07-21T03:35:48;18.50;99.90
3923;DHT22;1976;51.694;6.256;2022-07-21T03:38:13;18.50;99.90
3923;DHT22;1976;51.694;6.256;2022-07-21T03:40:41;18.50;99.90
3923;DHT22;1976;51.694;6.256;2022-07-21T03:43:07;18.40;99.90
3923;DHT22;1976;51.694;6.256;2022-07-21T03:45:34;18.60;99.90
3923;DHT22;1976;51.694;6.256;2022-07-21T03:48:02;18.60;99.90
3923;DHT22;1976;51.694;6.256;2022-07-21T03:50:29;18.60;99.90
3923;DHT22;1976;51.694;6.256;2022-07-21T03:52:55;18.60;99.90
3923;DHT22;1976;51.694;6.256;2022-07-21T03:55:21;18.60;99.90
3923;DHT22;1976;51.694;6.256;2022-07-21T03:57:53;18.60;99.90
3923;DHT22;1976;51.694;6.256;2022-07-21T04:02:49;18.60;99.90
3923;DHT22;1976;51.694;6.256;2022-07-21T04:05:16;18.60;99.90
3923;DHT22;1976;51.694;6.256;2022-07-21T04:07:43;18.60;99.90
3923;DHT22;1976;51.694;6.256;2022-07-21T04:10:11;18.70;99.90
3923;DHT22;1976;51.694;6.256;2022-07-21T04:12:38;18.70;99.90
3923;DHT22;1976;51.694;6.256;2022-07-21T04:15:05;18.70;99.90
3923;DHT22;1976;51.694;6.256;2022-07-21T04:17:31;18.80;99.90
3923;DHT22;1976;51.694;6.256;2022-07-21T04:19:57;18.80;99.90
3923;DHT22;1976;51.694;6.256;2022-07-21T04:22:22;18.80;99.90
3923;DHT22;1976;51.694;6.256;2022-07-21T04:24:48;18.80;99.90
3923;DHT22;1976;51.694;6.256;2022-07-21T04:27:13;18.70;99.90
3923;DHT22;1976;51.694;6.256;2022-07-21T04:29:39;18.80;99.90
3923;DHT22;1976;51.694;6.256;2022-07-21T04:32:05;18.80;99.90
3923;DHT22;1976;51.694;6.256;2022-07-21T04:34:31;18.90;99.90
3923;DHT22;1976;51.694;6.256;2022-07-21T04:36:56;18.90;99.90
3923;DHT22;1976;51.694;6.256;2022-07-21T04:39:22;19.00;99.90
3923;DHT22;1976;51.694;6.256;2022-07-21T04:41:48;18.90;99.90
3923;DHT22;1976;51.694;6.256;2022-07-21T04:44:13;19.00;99.90
3923;DHT22;1976;51.694;6.256;2022-07-21T04:46:39;18.90;99.90
3923;DHT22;1976;51.694;6.256;2022-07-21T04:49:05;19.10;99.90
3923;DHT22;1976;51.694;6.256;2022-07-21T04:51:30;19.10;99.90
3923;DHT22;1976;51.694;6.256;2022-07-21T04:56:22;19.00;99.90
3923;DHT22;1976;51.694;6.256;2022-07-21T04:58:48;19.00;99.90
3923;DHT22;1976;51.694;6.256;2022-07-21T05:01:13;18.90;99.90
3923;DHT22;1976;51.694;6.256;2022-07-21T05:03:39;19.00;99.90
3923;DHT22;1976;51.694;6.256;2022-07-21T05:06:05;18.90;99.90
3923;DHT22;1976;51.694;6.256;2022-07-21T05:08:31;18.90;99.90
3923;DHT22;1976;51.694;6.256;2022-07-21T05:10:56;18.90;99.90
3923;DHT22;1976;51.694;6.256;2022-07-21T05:13:22;18.90;99.90
3923;DHT22;1976;51.694;6.256;2022-07-21T05:18:14;18.90;99.90
3923;DHT22;1976;51.694;6.256;2022-07-21T05:20:39;18.90;99.90
3923;DHT22;1976;51.694;6.256;2022-07-21T05:23:05;18.90;99.90
3923;DHT22;1976;51.694;6.256;2022-07-21T05:25:30;19.00;99.90
3923;DHT22;1976;51.694;6.256;2022-07-21T05:27:57;19.00;99.90
3923;DHT22;1976;51.694;6.256;2022-07-21T05:30:23;19.10;99.90
3923;DHT22;1976;51.694;6.256;2022-07-21T05:32:49;19.10;99.90
3923;DHT22;1976;51.694;6.256;2022-07-21T05:35:15;19.20;99.90
3923;DHT22;1976;51.694;6.256;2022-07-21T05:37:42;19.20;99.90
3923;DHT22;1976;51.694;6.256;2022-07-21T05:40:08;19.20;99.90
3923;DHT22;1976;51.694;6.256;2022-07-21T05:42:36;19.20;99.90
3923;DHT22;1976;51.694;6.256;2022-07-21T05:45:02;19.30;99.90
3923;DHT22;1976;51.694;6.256;2022-07-21T05:47:29;19.20;99.90
3923;DHT22;1976;51.694;6.256;2022-07-21T05:49:55;19.30;99.90
3923;DHT22;1976;51.694;6.256;2022-07-21T05:52:21;19.30;99.90
3923;DHT22;1976;51.694;6.256;2022-07-21T05:54:46;19.20;99.90
3923;DHT22;1976;51.694;6.256;2022-07-21T05:57:12;19.10;99.90
3923;DHT22;1976;51.694;6.256;2022-07-21T05:59:38;19.10;99.90
3923;DHT22;1976;51.694;6.256;2022-07-21T06:02:03;19.20;99.90
3923;DHT22;1976;51.694;6.256;2022-07-21T06:04:29;19.20;99.90
3923;DHT22;1976;51.694;6.256;2022-07-21T06:06:54;19.10;99.90
3923;DHT22;1976;51.694;6.256;2022-07-21T06:09:20;19.20;99.90
3923;DHT22;1976;51.694;6.256;2022-07-21T06:11:46;19.10;99.90
3923;DHT22;1976;51.694;6.256;2022-07-21T06:14:12;19.20;99.90
3923;DHT22;1976;51.694;6.256;2022-07-21T06:16:38;19.20;99.90
3923;DHT22;1976;51.694;6.256;2022-07-21T06:19:05;19.30;99.90
3923;DHT22;1976;51.694;6.256;2022-07-21T06:21:32;19.50;99.90
3923;DHT22;1976;51.694;6.256;2022-07-21T06:23:58;19.40;99.90
3923;DHT22;1976;51.694;6.256;2022-07-21T06:26:23;19.50;99.90
3923;DHT22;1976;51.694;6.256;2022-07-21T06:28:49;19.50;99.90
3923;DHT22;1976;51.694;6.256;2022-07-21T06:31:15;19.70;99.90
3923;DHT22;1976;51.694;6.256;2022-07-21T06:33:41;19.70;99.90
3923;DHT22;1976;51.694;6.256;2022-07-21T06:36:07;19.90;99.90
3923;DHT22;1976;51.694;6.256;2022-07-21T06:38:33;19.90;99.90
3923;DHT22;1976;51.694;6.256;2022-07-21T06:40:59;20.10;99.90
3923;DHT22;1976;51.694;6.256;2022-07-21T06:43:25;20.40;99.90
3923;DHT22;1976;51.694;6.256;2022-07-21T06:45:51;20.70;99.90
3923;DHT22;1976;51.694;6.256;2022-07-21T06:48:17;20.80;99.90
3923;DHT22;1976;51.694;6.256;2022-07-21T06:50:42;21.10;99.90
3923;DHT22;1976;51.694;6.256;2022-07-21T06:53:08;21.00;99.90
3923;DHT22;1976;51.694;6.256;2022-07-21T06:55:35;21.00;99.90
3923;DHT22;1976;51.694;6.256;2022-07-21T06:58:15;21.10;99.90
3923;DHT22;1976;51.694;6.256;2022-07-21T07:00:41;21.10;99.90
3923;DHT22;1976;51.694;6.256;2022-07-21T07:03:07;21.20;99.90
3923;DHT22;1976;51.694;6.256;2022-07-21T07:05:34;20.90;99.90
3923;DHT22;1976;51.694;6.256;2022-07-21T07:08:00;20.80;99.90
3923;DHT22;1976;51.694;6.256;2022-07-21T07:10:26;20.80;99.90
3923;DHT22;1976;51.694;6.256;2022-07-21T07:12:51;20.80;99.90
3923;DHT22;1976;51.694;6.256;2022-07-21T07:15:17;20.70;99.90
3923;DHT22;1976;51.694;6.256;2022-07-21T07:17:43;17.20;99.90
3923;DHT22;1976;51.694;6.256;2022-07-21T07:20:09;20.50;99.90
3923;DHT22;1976;51.694;6.256;2022-07-21T07:22:35;20.50;99.90
3923;DHT22;1976;51.694;6.256;2022-07-21T07:25:01;20.50;99.90
3923;DHT22;1976;51.694;6.256;2022-07-21T07:27:27;20.50;99.90
3923;DHT22;1976;51.694;6.256;2022-07-21T07:29:52;20.50;99.90
3923;DHT22;1976;51.694;6.256;2022-07-21T07:32:18;20.70;99.90
3923;DHT22;1976;51.694;6.256;2022-07-21T07:34:44;20.60;99.90
3923;DHT22;1976;51.694;6.256;2022-07-21T07:37:09;20.70;99.90
3923;DHT22;1976;51.694;6.256;2022-07-21T07:39:35;20.70;99.90
3923;DHT22;1976;51.694;6.256;2022-07-21T07:42:03;19.30;99.90
3923;DHT22;1976;51.694;6.256;2022-07-21T07:44:29;20.80;99.90
3923;DHT22;1976;51.694;6.256;2022-07-21T07:46:56;20.90;99.90
3923;DHT22;1976;51.694;6.256;2022-07-21T07:49:23;20.90;99.90
3923;DHT22;1976;51.694;6.256;2022-07-21T07:51:52;21.00;99.90
3923;DHT22;1976;51.694;6.256;2022-07-21T07:54:20;21.00;99.90
3923;DHT22;1976;51.694;6.256;2022-07-21T07:56:49;20.90;99.90
3923;DHT22;1976;51.694;6.256;2022-07-21T07:59:18;20.90;99.90
3923;DHT22;1976;51.694;6.256;2022-07-21T08:01:43;21.00;99.90
3923;DHT22;1976;51.694;6.256;2022-07-21T08:04:09;21.10;99.90
3923;DHT22;1976;51.694;6.256;2022-07-21T08:06:35;21.20;99.90
3923;DHT22;1976;51.694;6.256;2022-07-21T08:09:00;21.20;99.90
3923;DHT22;1976;51.694;6.256;2022-07-21T08:11:26;21.20;99.90
3923;DHT22;1976;51.694;6.256;2022-07-21T08:13:52;21.20;99.90
3923;DHT22;1976;51.694;6.256;2022-07-21T08:16:18;21.20;99.90
3923;DHT22;1976;51.694;6.256;2022-07-21T08:18:44;21.20;99.90
3923;DHT22;1976;51.694;6.256;2022-07-21T08:21:10;21.30;99.90
3923;DHT22;1976;51.694;6.256;2022-07-21T08:23:36;21.30;99.90
3923;DHT22;1976;51.694;6.256;2022-07-21T08:26:02;21.40;99.90
3923;DHT22;1976;51.694;6.256;2022-07-21T08:28:28;21.40;99.90
3923;DHT22;1976;51.694;6.256;2022-07-21T08:30:54;21.40;99.90
3923;DHT22;1976;51.694;6.256;2022-07-21T08:33:20;21.40;99.90
3923;DHT22;1976;51.694;6.256;2022-07-21T08:35:45;21.40;99.90
3923;DHT22;1976;51.694;6.256;2022-07-21T08:38:12;21.20;99.90
3923;DHT22;1976;51.694;6.256;2022-07-21T08:40:44;21.30;99.90
3923;DHT22;1976;51.694;6.256;2022-07-21T08:43:11;21.40;99.90
3923;DHT22;1976;51.694;6.256;2022-07-21T08:45:39;21.50;99.90
3923;DHT22;1976;51.694;6.256;2022-07-21T08:50:34;21.90;99.90
3923;DHT22;1976;51.694;6.256;2022-07-21T08:53:00;21.90;99.90
3923;DHT22;1976;51.694;6.256;2022-07-21T08:55:35;21.70;99.90
3923;DHT22;1976;51.694;6.256;2022-07-21T08:58:02;21.50;99.90
3923;DHT22;1976;51.694;6.256;2022-07-21T09:00:29;21.40;99.90
3923;DHT22;1976;51.694;6.256;2022-07-21T09:08:45;21.20;99.90
3923;DHT22;1976;51.694;6.256;2022-07-21T09:13:37;21.50;99.90
3923;DHT22;1976;51.694;6.256;2022-07-21T09:16:03;21.50;99.90
3923;DHT22;1976;51.694;6.256;2022-07-21T09:18:29;21.40;99.90
3923;DHT22;1976;51.694;6.256;2022-07-21T09:20:55;21.30;99.90
3923;DHT22;1976;51.694;6.256;2022-07-21T09:23:23;21.10;99.90
3923;DHT22;1976;51.694;6.256;2022-07-21T09:25:54;21.10;99.90
3923;DHT22;1976;51.694;6.256;2022-07-21T09:28:28;21.00;99.90
3923;DHT22;1976;51.694;6.256;2022-07-21T09:30:59;21.00;99.90
3923;DHT22;1976;51.694;6.256;2022-07-21T09:33:36;21.10;99.90
3923;DHT22;1976;51.694;6.256;2022-07-21T09:36:13;21.20;99.90
3923;DHT22;1976;51.694;6.256;2022-07-21T09:38:49;21.20;99.90
3923;DHT22;1976;51.694;6.256;2022-07-21T09:41:17;21.10;99.90
3923;DHT22;1976;51.694;6.256;2022-07-21T09:43:54;20.90;99.90
3923;DHT22;1976;51.694;6.256;2022-07-21T09:46:25;20.80;99.90
3923;DHT22;1976;51.694;6.256;2022-07-21T09:48:53;20.70;99.90
3923;DHT22;1976;51.694;6.256;2022-07-21T09:54:09;20.60;99.90
3923;DHT22;1976;51.694;6.256;2022-07-21T09:56:38;20.50;99.90
3923;DHT22;1976;51.694;6.256;2022-07-21T09:59:06;20.50;99.90
3923;DHT22;1976;51.694;6.256;2022-07-21T10:01:32;20.40;99.90
3923;DHT22;1976;51.694;6.256;2022-07-21T10:03:59;20.40;99.90
3923;DHT22;1976;51.694;6.256;2022-07-21T10:06:30;20.40;99.90
3923;DHT22;1976;51.694;6.256;2022-07-21T10:08:58;20.40;99.90
3923;DHT22;1976;51.694;6.256;2022-07-21T10:11:25;20.30;99.90
3923;DHT22;1976;51.694;6.256;2022-07-21T10:13:51;20.20;99.90
3923;DHT22;1976;51.694;6.256;2022-07-21T10:16:17;20.00;99.90
3923;DHT22;1976;51.694;6.256;2022-07-21T10:18:55;19.80;99.90
3923;DHT22;1976;51.694;6.256;2022-07-21T10:24:02;19.50;99.90
3923;DHT22;1976;51.694;6.256;2022-07-21T10:26:30;19.40;99.90
3923;DHT22;1976;51.694;6.256;2022-07-21T10:28:56;19.20;99.90
3923;DHT22;1976;51.694;6.256;2022-07-21T10:31:24;19.20;99.90
3923;DHT22;1976;51.694;6.256;2022-07-21T10:33:52;19.20;99.90
3923;DHT22;1976;51.694;6.256;2022-07-21T10:39:23;19.00;99.90
3923;DHT22;1976;51.694;6.256;2022-07-21T10:41:54;19.00;99.90
3923;DHT22;1976;51.694;6.256;2022-07-21T10:50:00;19.00;99.90
3923;DHT22;1976;51.694;6.256;2022-07-21T10:57:37;19.00;99.90
3923;DHT22;1976;51.694;6.256;2022-07-21T11:00:23;19.00;99.90
3923;DHT22;1976;51.694;6.256;2022-07-21T11:03:01;18.90;99.90
3923;DHT22;1976;51.694;6.256;2022-07-21T11:05:31;18.90;99.90
3923;DHT22;1976;51.694;6.256;2022-07-21T11:08:16;18.90;99.90
3923;DHT22;1976;51.694;6.256;2022-07-21T11:10:48;18.90;99.90
3923;DHT22;1976;51.694;6.256;2022-07-21T11:13:15;18.90;99.90
3923;DHT22;1976;51.694;6.256;2022-07-21T11:18:21;19.00;99.90
3923;DHT22;1976;51.694;6.256;2022-07-21T11:21:03;19.00;99.90
3923;DHT22;1976;51.694;6.256;2022-07-21T11:26:01;19.10;99.90
3923;DHT22;1976;51.694;6.256;2022-07-21T11:28:27;19.20;99.90
3923;DHT22;1976;51.694;6.256;2022-07-21T11:33:43;19.30;99.90
3923;DHT22;1976;51.694;6.256;2022-07-21T11:36:10;19.30;99.90
3923;DHT22;1976;51.694;6.256;2022-07-21T11:38:36;19.30;99.90
3923;DHT22;1976;51.694;6.256;2022-07-21T11:41:18;19.40;99.90
3923;DHT22;1976;51.694;6.256;2022-07-21T11:43:45;19.40;99.90
3923;DHT22;1976;51.694;6.256;2022-07-21T11:46:11;19.30;99.90
3923;DHT22;1976;51.694;6.256;2022-07-21T11:48:36;19.30;99.90
3923;DHT22;1976;51.694;6.256;2022-07-21T11:51:03;19.30;99.90
3923;DHT22;1976;51.694;6.256;2022-07-21T11:53:30;19.30;99.90
3923;DHT22;1976;51.694;6.256;2022-07-21T11:55:57;19.30;99.90
3923;DHT22;1976;51.694;6.256;2022-07-21T11:58:22;19.20;99.90
3923;DHT22;1976;51.694;6.256;2022-07-21T12:00:48;19.20;99.90
3923;DHT22;1976;51.694;6.256;2022-07-21T12:03:14;19.20;99.90
3923;DHT22;1976;51.694;6.256;2022-07-21T12:05:40;19.20;99.90
3923;DHT22;1976;51.694;6.256;2022-07-21T12:08:07;19.20;99.90
3923;DHT22;1976;51.694;6.256;2022-07-21T12:10:33;19.20;99.90
3923;DHT22;1976;51.694;6.256;2022-07-21T12:13:01;19.20;99.90
3923;DHT22;1976;51.694;6.256;2022-07-21T12:15:31;19.20;99.90
3923;DHT22;1976;51.694;6.256;2022-07-21T12:18:07;19.20;99.90
3923;DHT22;1976;51.694;6.256;2022-07-21T12:20:39;19.20;99.90
3923;DHT22;1976;51.694;6.256;2022-07-21T12:23:24;19.30;99.90
3923;DHT22;1976;51.694;6.256;2022-07-21T12:25:50;19.20;99.90
3923;DHT22;1976;51.694;6.256;2022-07-21T12:28:17;19.20;99.90
3923;DHT22;1976;51.694;6.256;2022-07-21T12:30:48;19.30;99.90
3923;DHT22;1976;51.694;6.256;2022-07-21T12:33:27;19.30;99.90
3923;DHT22;1976;51.694;6.256;2022-07-21T12:36:03;19.40;99.90
3923;DHT22;1976;51.694;6.256;2022-07-21T12:38:46;19.50;99.90
3923;DHT22;1976;51.694;6.256;2022-07-21T12:41:14;19.50;99.90
3923;DHT22;1976;51.694;6.256;2022-07-21T12:43:41;19.60;99.90
3923;DHT22;1976;51.694;6.256;2022-07-21T12:46:16;19.60;99.90
3923;DHT22;1976;51.694;6.256;2022-07-21T12:48:44;19.60;99.90
3923;DHT22;1976;51.694;6.256;2022-07-21T12:53:55;19.80;99.90
3923;DHT22;1976;51.694;6.256;2022-07-21T12:56:26;19.70;99.90
3923;DHT22;1976;51.694;6.256;2022-07-21T12:58:54;19.60;99.90
3923;DHT22;1976;51.694;6.256;2022-07-21T13:01:21;19.60;99.90
3923;DHT22;1976;51.694;6.256;2022-07-21T13:03:48;19.70;99.90
3923;DHT22;1976;51.694;6.256;2022-07-21T13:06:14;19.70;99.90
3923;DHT22;1976;51.694;6.256;2022-07-21T13:08:42;19.70;99.90
3923;DHT22;1976;51.694;6.256;2022-07-21T13:11:11;19.70;99.90
3923;DHT22;1976;51.694;6.256;2022-07-21T13:13:37;19.60;99.90
3923;DHT22;1976;51.694;6.256;2022-07-21T13:16:03;19.60;99.90
3923;DHT22;1976;51.694;6.256;2022-07-21T13:18:30;19.60;99.90
3923;DHT22;1976;51.694;6.256;2022-07-21T13:20:55;19.60;99.90
3923;DHT22;1976;51.694;6.256;2022-07-21T13:23:21;19.80;99.90
3923;DHT22;1976;51.694;6.256;2022-07-21T13:25:48;19.80;99.90
3923;DHT22;1976;51.694;6.256;2022-07-21T13:28:15;19.80;99.90
3923;DHT22;1976;51.694;6.256;2022-07-21T13:30:41;19.70;99.90
3923;DHT22;1976;51.694;6.256;2022-07-21T13:33:07;19.50;99.90
3923;DHT22;1976;51.694;6.256;2022-07-21T13:35:33;19.50;99.90
3923;DHT22;1976;51.694;6.256;2022-07-21T13:37:59;19.50;99.90
3923;DHT22;1976;51.694;6.256;2022-07-21T13:40:26;19.50;99.90
3923;DHT22;1976;51.694;6.256;2022-07-21T13:42:52;19.50;99.90
3923;DHT22;1976;51.694;6.256;2022-07-21T13:45:18;19.40;99.90
3923;DHT22;1976;51.694;6.256;2022-07-21T13:47:44;19.40;99.90
3923;DHT22;1976;51.694;6.256;2022-07-21T13:50:10;19.50;99.90
3923;DHT22;1976;51.694;6.256;2022-07-21T13:52:36;19.50;99.90
3923;DHT22;1976;51.694;6.256;2022-07-21T13:55:05;19.40;99.90
3923;DHT22;1976;51.694;6.256;2022-07-21T13:57:30;19.40;99.90
3923;DHT22;1976;51.694;6.256;2022-07-21T13:59:56;19.40;99.90
3923;DHT22;1976;51.694;6.256;2022-07-21T14:02:22;19.40;99.90
3923;DHT22;1976;51.694;6.256;2022-07-21T14:04:47;19.40;99.90
3923;DHT22;1976;51.694;6.256;2022-07-21T14:07:13;19.40;99.90
3923;DHT22;1976;51.694;6.256;2022-07-21T14:09:43;19.50;99.90
3923;DHT22;1976;51.694;6.256;2022-07-21T14:12:09;19.60;99.90
3923;DHT22;1976;51.694;6.256;2022-07-21T14:14:37;19.70;99.90
3923;DHT22;1976;51.694;6.256;2022-07-21T14:17:03;19.80;99.90
3923;DHT22;1976;51.694;6.256;2022-07-21T14:19:29;19.90;99.90
3923;DHT22;1976;51.694;6.256;2022-07-21T14:21:55;20.00;99.90
3923;DHT22;1976;51.694;6.256;2022-07-21T14:24:20;19.90;99.90
3923;DHT22;1976;51.694;6.256;2022-07-21T14:27:04;19.80;99.90
3923;DHT22;1976;51.694;6.256;2022-07-21T14:29:30;19.60;99.90
3923;DHT22;1976;51.694;6.256;2022-07-21T14:31:56;19.50;99.90
3923;DHT22;1976;51.694;6.256;2022-07-21T14:34:22;19.40;99.90
3923;DHT22;1976;51.694;6.256;2022-07-21T14:36:47;19.40;99.90
3923;DHT22;1976;51.694;6.256;2022-07-21T14:39:14;19.40;99.90
3923;DHT22;1976;51.694;6.256;2022-07-21T14:41:40;19.40;99.90
3923;DHT22;1976;51.694;6.256;2022-07-21T14:44:05;19.40;99.90
3923;DHT22;1976;51.694;6.256;2022-07-21T14:46:31;19.40;99.90
3923;DHT22;1976;51.694;6.256;2022-07-21T14:48:57;19.30;99.90
3923;DHT22;1976;51.694;6.256;2022-07-21T14:51:23;19.30;99.90
3923;DHT22;1976;51.694;6.256;2022-07-21T14:53:48;19.30;99.90
3923;DHT22;1976;51.694;6.256;2022-07-21T14:56:14;19.40;99.90
3923;DHT22;1976;51.694;6.256;2022-07-21T14:58:40;19.40;99.90
3923;DHT22;1976;51.694;6.256;2022-07-21T15:01:06;19.40;99.90
3923;DHT22;1976;51.694;6.256;2022-07-21T15:03:31;19.40;99.90
3923;DHT22;1976;51.694;6.256;2022-07-21T15:05:57;19.30;99.90
3923;DHT22;1976;51.694;6.256;2022-07-21T15:08:23;19.10;99.90
3923;DHT22;1976;51.694;6.256;2022-07-21T15:10:48;19.00;99.90
3923;DHT22;1976;51.694;6.256;2022-07-21T15:13:15;18.90;99.90
3923;DHT22;1976;51.694;6.256;2022-07-21T15:15:41;19.00;99.90
3923;DHT22;1976;51.694;6.256;2022-07-21T15:18:09;19.00;99.90
3923;DHT22;1976;51.694;6.256;2022-07-21T15:20:35;19.00;99.90
3923;DHT22;1976;51.694;6.256;2022-07-21T15:23:00;19.10;99.90
3923;DHT22;1976;51.694;6.256;2022-07-21T15:25:26;19.10;99.90
3923;DHT22;1976;51.694;6.256;2022-07-21T15:27:52;19.10;99.90
3923;DHT22;1976;51.694;6.256;2022-07-21T15:30:17;19.20;99.90
3923;DHT22;1976;51.694;6.256;2022-07-21T15:32:43;19.20;99.90
3923;DHT22;1976;51.694;6.256;2022-07-21T15:35:10;19.00;99.90
3923;DHT22;1976;51.694;6.256;2022-07-21T15:37:36;19.10;99.90
3923;DHT22;1976;51.694;6.256;2022-07-21T15:40:04;19.10;99.90
3923;DHT22;1976;51.694;6.256;2022-07-21T15:42:30;19.00;99.90
3923;DHT22;1976;51.694;6.256;2022-07-21T15:44:58;18.90;99.90
3923;DHT22;1976;51.694;6.256;2022-07-21T15:47:24;18.80;99.90
3923;DHT22;1976;51.694;6.256;2022-07-21T15:49:50;18.70;99.90
3923;DHT22;1976;51.694;6.256;2022-07-21T15:52:16;18.70;99.90
3923;DHT22;1976;51.694;6.256;2022-07-21T15:57:08;18.60;99.90
3923;DHT22;1976;51.694;6.256;2022-07-21T15:59:35;18.50;99.90
3923;DHT22;1976;51.694;6.256;2022-07-21T16:02:09;18.50;99.90
3923;DHT22;1976;51.694;6.256;2022-07-21T16:04:36;18.50;99.90
3923;DHT22;1976;51.694;6.256;2022-07-21T16:07:02;18.50;99.90
3923;DHT22;1976;51.694;6.256;2022-07-21T16:09:28;18.50;99.90
3923;DHT22;1976;51.694;6.256;2022-07-21T16:11:54;18.50;99.90
3923;DHT22;1976;51.694;6.256;2022-07-21T16:14:20;18.50;99.90
3923;DHT22;1976;51.694;6.256;2022-07-21T16:16:46;18.40;99.90
3923;DHT22;1976;51.694;6.256;2022-07-21T16:19:11;18.40;99.90
3923;DHT22;1976;51.694;6.256;2022-07-21T16:21:37;18.40;99.90
3923;DHT22;1976;51.694;6.256;2022-07-21T16:24:03;18.40;99.90
3923;DHT22;1976;51.694;6.256;2022-07-21T16:26:29;18.40;99.90
3923;DHT22;1976;51.694;6.256;2022-07-21T16:28:54;18.40;99.90
3923;DHT22;1976;51.694;6.256;2022-07-21T16:31:20;18.40;99.90
3923;DHT22;1976;51.694;6.256;2022-07-21T16:33:50;18.40;99.90
3923;DHT22;1976;51.694;6.256;2022-07-21T16:36:16;18.40;99.90
3923;DHT22;1976;51.694;6.256;2022-07-21T16:38:42;18.40;99.90
3923;DHT22;1976;51.694;6.256;2022-07-21T16:41:08;18.50;99.90
3923;DHT22;1976;51.694;6.256;2022-07-21T16:43:34;18.50;99.90
3923;DHT22;1976;51.694;6.256;2022-07-21T16:46:00;18.50;99.90
3923;DHT22;1976;51.694;6.256;2022-07-21T16:48:26;18.50;99.90
3923;DHT22;1976;51.694;6.256;2022-07-21T16:50:51;18.60;99.90
3923;DHT22;1976;51.694;6.256;2022-07-21T16:53:18;18.50;99.90
3923;DHT22;1976;51.694;6.256;2022-07-21T16:55:43;18.60;99.90
3923;DHT22;1976;51.694;6.256;2022-07-21T16:58:09;18.50;99.90